createdAt,value
2018-11-23T00:02:08.415Z,51.67
2018-11-23T00:04:40.158Z,47.97
2018-11-23T00:07:10.647Z,46.60
2018-11-23T00:09:40.840Z,48.40
2018-11-23T00:12:10.966Z,47.53
2018-11-23T00:14:41.151Z,46.10
2018-11-23T00:17:12.214Z,48.17
2018-11-23T00:19:42.359Z,46.17
2018-11-23T00:22:12.849Z,43.03
2018-11-23T00:24:43.384Z,46.20
2018-11-23T00:27:13.447Z,46.83
2018-11-23T00:29:43.547Z,44.57
2018-11-23T00:32:13.594Z,44.87
2018-11-23T00:34:43.834Z,42.17
2018-11-23T00:37:14.956Z,45.30
2018-11-23T00:39:45.619Z,44.30
2018-11-23T00:42:16.359Z,44.10
2018-11-23T00:44:46.717Z,41.33
2018-11-23T00:47:17.782Z,42.90
2018-11-23T00:49:48.439Z,46.00
2018-11-23T00:52:18.677Z,40.03
2018-11-23T00:54:49.763Z,36.17
2018-11-23T00:57:19.975Z,35.00
2018-11-23T00:59:50.891Z,37.83
2018-11-23T01:02:22.069Z,37.23
2018-11-23T01:04:52.207Z,44.97
2018-11-23T01:07:22.515Z,40.03
2018-11-23T01:09:53.554Z,39.87
2018-11-23T01:12:24.375Z,43.73
2018-11-23T01:14:54.756Z,41.33
2018-11-23T01:17:25.157Z,40.37
2018-11-23T01:19:56.195Z,39.53
2018-11-23T01:22:27.510Z,38.93
2018-11-23T01:24:57.576Z,41.43
2018-11-23T01:27:27.854Z,38.90
2018-11-23T01:29:58.654Z,40.83
2018-11-23T01:32:28.773Z,44.03
2018-11-23T01:34:59.657Z,47.37
2018-11-23T01:37:29.752Z,45.27
2018-11-23T01:40:00.147Z,44.90
2018-11-23T01:42:30.636Z,48.73
2018-11-23T01:45:00.794Z,46.17
2018-11-23T01:47:31.012Z,44.70
2018-11-23T01:50:01.411Z,44.87
2018-11-23T01:52:31.528Z,46.30
2018-11-23T01:55:01.600Z,44.27
2018-11-23T01:57:33.315Z,48.07
2018-11-23T02:00:03.425Z,56.73
2018-11-23T02:02:33.354Z,49.30
2018-11-23T02:05:03.297Z,42.50
2018-11-23T02:07:33.258Z,57.40
2018-11-23T02:10:04.223Z,50.10
2018-11-23T02:12:34.506Z,50.93
2018-11-23T02:15:04.947Z,44.37
2018-11-23T02:17:35.580Z,49.60
2018-11-23T02:20:07.993Z,46.70
2018-11-23T02:22:38.120Z,48.03
2018-11-23T02:25:08.454Z,51.37
2018-11-23T02:27:38.786Z,56.40
2018-11-23T02:30:17.759Z,55.73
2018-11-23T02:32:48.032Z,58.00
2018-11-23T02:35:18.737Z,52.47
2018-11-23T02:37:49.201Z,55.60
2018-11-23T02:40:20.415Z,54.67
2018-11-23T02:42:50.811Z,60.67
2018-11-23T02:45:22.619Z,51.43
2018-11-23T02:47:53.275Z,51.07
2018-11-23T02:50:23.695Z,48.07
2018-11-23T02:52:53.687Z,49.40
2018-11-23T02:55:24.321Z,48.27
2018-11-23T02:57:54.321Z,49.40
2018-11-23T03:00:24.674Z,46.63
2018-11-23T03:02:55.851Z,44.17
2018-11-23T03:05:25.961Z,48.63
2018-11-23T03:07:57.183Z,47.93
2018-11-23T03:10:27.384Z,48.27
2018-11-23T03:12:57.769Z,47.90
2018-11-23T03:15:27.915Z,46.67
2018-11-23T03:17:58.125Z,43.93
2018-11-23T03:20:28.293Z,47.13
2018-11-23T03:22:59.255Z,42.93
2018-11-23T03:25:30.082Z,46.33
2018-11-23T03:28:00.400Z,46.80
2018-11-23T03:30:30.573Z,49.07
2018-11-23T03:33:00.941Z,45.23
2018-11-23T03:35:32.426Z,43.50
2018-11-23T03:38:02.751Z,42.23
2018-11-23T03:40:34.593Z,43.73
2018-11-23T03:43:05.591Z,44.77
2018-11-23T03:45:35.951Z,45.90
2018-11-23T03:48:06.413Z,42.63
2018-11-23T03:50:36.591Z,42.93
2018-11-23T03:53:07.541Z,43.73
2018-11-23T03:55:38.349Z,44.47
2018-11-23T03:58:08.497Z,43.33
2018-11-23T04:00:38.637Z,44.23
2018-11-23T04:03:09.554Z,52.90
2018-11-23T04:05:40.593Z,46.80
2018-11-23T04:08:10.743Z,45.93
2018-11-23T04:10:41.859Z,47.53
2018-11-23T04:13:12.187Z,45.37
2018-11-23T04:15:42.538Z,46.40
2018-11-23T04:18:13.193Z,45.43
2018-11-23T04:20:47.466Z,42.07
2018-11-23T04:23:19.838Z,43.13
2018-11-23T04:25:49.912Z,40.77
2018-11-23T04:28:20.247Z,42.77
2018-11-23T04:30:50.710Z,40.43
2018-11-23T04:33:21.620Z,41.77
2018-11-23T04:35:52.724Z,39.13
2018-11-23T04:38:23.060Z,41.20
2018-11-23T04:40:53.922Z,46.00
2018-11-23T04:43:24.164Z,49.87
2018-11-23T04:45:54.232Z,45.67
2018-11-23T04:48:24.712Z,41.00
2018-11-23T04:50:55.030Z,40.57
2018-11-23T04:53:25.419Z,48.70
2018-11-23T04:55:55.627Z,45.30
2018-11-23T04:58:25.851Z,43.83
2018-11-23T05:00:56.108Z,44.33
2018-11-23T05:03:26.800Z,43.40
2018-11-23T05:05:57.226Z,39.50
2018-11-23T05:08:27.559Z,43.67
2018-11-23T05:10:58.197Z,42.90
2018-11-23T05:13:28.588Z,47.67
2018-11-23T05:15:59.747Z,43.60
2018-11-23T05:18:30.370Z,41.03
2018-11-23T05:21:00.614Z,46.93
2018-11-23T05:23:31.032Z,41.80
2018-11-23T05:26:01.117Z,43.13
2018-11-23T05:28:32.327Z,37.17
2018-11-23T05:31:03.902Z,41.67
2018-11-23T05:33:33.997Z,39.33
2018-11-23T05:36:05.051Z,39.10
2018-11-23T05:38:35.057Z,42.37
2018-11-23T05:41:05.248Z,40.67
2018-11-23T05:43:35.898Z,40.93
2018-11-23T05:46:06.353Z,47.03
2018-11-23T05:48:37.072Z,42.30
2018-11-23T05:51:07.892Z,42.00
2018-11-23T05:53:38.160Z,41.20
2018-11-23T05:56:08.876Z,44.57
2018-11-23T05:58:39.347Z,37.33
2018-11-23T06:01:09.748Z,39.73
2018-11-23T06:03:40.339Z,38.97
2018-11-23T06:06:10.814Z,37.77
2018-11-23T06:08:41.697Z,38.87
2018-11-23T06:11:11.870Z,35.60
2018-11-23T06:13:42.322Z,34.57
2018-11-23T06:16:12.246Z,34.43
2018-11-23T06:18:42.418Z,38.97
2018-11-23T06:21:12.990Z,46.00
2018-11-23T06:23:43.124Z,46.63
2018-11-23T06:26:17.248Z,48.27
2018-11-23T06:28:47.706Z,45.80
2018-11-23T06:31:17.821Z,48.70
2018-11-23T06:33:48.706Z,46.77
2018-11-23T06:36:19.184Z,44.40
2018-11-23T06:38:49.335Z,40.57
2018-11-23T06:41:19.591Z,43.03
2018-11-23T06:43:53.641Z,51.53
2018-11-23T06:46:24.698Z,50.00
2018-11-23T06:48:56.049Z,48.10
2018-11-23T06:51:26.294Z,50.37
2018-11-23T06:53:57.057Z,49.23
2018-11-23T06:56:27.949Z,56.83
2018-11-23T06:58:58.683Z,53.50
2018-11-23T07:01:29.165Z,51.77
2018-11-23T07:03:59.277Z,59.07
2018-11-23T07:06:29.803Z,49.73
2018-11-23T07:09:00.683Z,47.70
2018-11-23T07:11:34.030Z,49.20
2018-11-23T07:14:04.969Z,45.20
2018-11-23T07:16:35.600Z,48.63
2018-11-23T07:19:06.151Z,47.00
2018-11-23T07:21:37.533Z,49.60
2018-11-23T07:24:08.159Z,46.37
2018-11-23T07:26:38.950Z,43.00
2018-11-23T07:29:09.418Z,46.13
2018-11-23T07:31:40.493Z,44.30
2018-11-23T07:34:11.237Z,43.53
2018-11-23T07:36:41.501Z,38.73
2018-11-23T07:39:23.774Z,38.30
2018-11-23T07:42:05.578Z,44.63
2018-11-23T07:44:36.930Z,41.20
2018-11-23T07:47:07.227Z,45.20
2018-11-23T07:49:37.362Z,45.87
2018-11-23T07:52:08.883Z,60.57
2018-11-23T07:54:39.858Z,64.00
2018-11-23T07:57:11.140Z,55.43
2018-11-23T07:59:41.532Z,50.27
2018-11-23T08:02:12.715Z,43.73
2018-11-23T08:04:44.375Z,43.77
2018-11-23T08:07:15.099Z,45.43
2018-11-23T08:09:45.601Z,41.97
2018-11-23T08:12:15.818Z,39.20
2018-11-23T08:14:46.406Z,41.47
2018-11-23T08:17:16.820Z,41.27
2018-11-23T08:19:47.478Z,42.73
2018-11-23T08:22:17.517Z,43.37
2018-11-23T08:24:47.883Z,41.47
2018-11-23T08:27:18.281Z,46.97
2018-11-23T08:29:48.758Z,41.17
2018-11-23T08:32:20.461Z,48.03
2018-11-23T08:34:51.018Z,45.57
2018-11-23T08:37:21.527Z,43.90
2018-11-23T08:39:52.202Z,42.23
2018-11-23T08:42:22.280Z,40.47
2018-11-23T08:44:52.624Z,39.07
2018-11-23T08:47:23.621Z,37.90
2018-11-23T08:49:54.579Z,37.13
2018-11-23T08:52:24.892Z,35.43
2018-11-23T08:54:55.085Z,35.97
2018-11-23T08:57:26.034Z,37.63
2018-11-23T08:59:56.587Z,37.00
2018-11-23T09:02:27.110Z,35.80
2018-11-23T09:04:57.431Z,37.60
2018-11-23T09:07:27.455Z,34.37
2018-11-23T09:09:57.758Z,35.73
2018-11-23T09:12:28.180Z,33.70
2018-11-23T09:14:58.914Z,32.40
2018-11-23T09:17:29.343Z,30.43
2018-11-23T09:20:00.139Z,33.73
2018-11-23T09:22:31.794Z,35.00
2018-11-23T09:25:02.371Z,33.53
2018-11-23T09:27:32.903Z,35.80
2018-11-23T09:30:03.407Z,32.60
2018-11-23T09:32:33.770Z,28.00
2018-11-23T09:35:04.604Z,30.90
2018-11-23T09:37:34.940Z,29.80
2018-11-23T09:40:06.300Z,32.47
2018-11-23T09:42:36.801Z,31.83
2018-11-23T09:45:09.351Z,30.17
2018-11-23T09:47:39.952Z,28.73
2018-11-23T09:50:12.570Z,32.50
2018-11-23T09:52:43.726Z,31.73
2018-11-23T09:55:14.141Z,30.07
2018-11-23T09:57:45.321Z,31.97
2018-11-23T10:00:18.992Z,29.10
2018-11-23T10:02:50.248Z,32.27
2018-11-23T10:05:21.592Z,35.30
2018-11-23T10:07:54.323Z,33.53
2018-11-23T10:10:24.967Z,33.33
2018-11-23T10:12:55.285Z,35.07
2018-11-23T10:15:26.720Z,31.50
2018-11-23T10:17:56.802Z,31.27
2018-11-23T10:20:28.436Z,30.70
2018-11-23T10:22:59.013Z,30.50
2018-11-23T10:25:31.001Z,30.00
2018-11-23T10:30:54.940Z,28.90
2018-11-23T10:33:28.366Z,27.30
2018-11-23T10:35:56.209Z,25.37
2018-11-23T10:38:27.161Z,29.37
2018-11-23T10:40:57.659Z,28.13
2018-11-23T10:43:27.977Z,28.17
2018-11-23T10:45:59.377Z,28.77
2018-11-23T10:48:30.690Z,26.80
2018-11-23T10:51:01.252Z,30.57
2018-11-23T10:53:31.939Z,25.77
2018-11-23T10:56:02.172Z,25.43
2018-11-23T10:58:32.898Z,25.90
2018-11-23T11:01:08.621Z,28.60
2018-11-23T11:03:44.149Z,24.73
2018-11-23T11:06:19.686Z,25.63
2018-11-23T11:08:50.757Z,28.83
2018-11-23T11:11:21.472Z,25.93
2018-11-23T11:13:51.730Z,25.93
2018-11-23T11:16:22.841Z,25.87
2018-11-23T11:18:53.134Z,26.37
2018-11-23T11:21:23.638Z,25.33
2018-11-23T11:23:53.976Z,26.47
2018-11-23T11:26:24.101Z,28.27
2018-11-23T11:28:54.481Z,24.93
2018-11-23T11:31:24.812Z,26.80
2018-11-23T11:33:55.982Z,30.23
2018-11-23T11:36:26.091Z,25.27
2018-11-23T11:38:56.172Z,25.27
2018-11-23T11:41:27.472Z,25.77
2018-11-23T11:43:58.140Z,26.77
2018-11-23T11:46:29.056Z,24.10
2018-11-23T11:48:59.297Z,28.93
2018-11-23T11:51:29.785Z,28.07
2018-11-23T11:54:00.501Z,27.17
2018-11-23T11:56:32.214Z,27.07
2018-11-23T11:59:02.406Z,28.27
2018-11-23T12:01:32.588Z,28.57
2018-11-23T12:04:02.950Z,31.83
2018-11-23T12:06:33.362Z,26.10
2018-11-23T12:09:04.748Z,33.43
2018-11-23T12:11:34.928Z,26.13
2018-11-23T12:14:05.683Z,24.80
2018-11-23T12:16:36.111Z,26.53
2018-11-23T12:19:08.086Z,26.53
2018-11-23T12:21:37.010Z,27.97
2018-11-23T12:24:07.239Z,29.50
2018-11-23T12:26:38.704Z,26.70
2018-11-23T12:29:08.908Z,25.40
2018-11-23T12:31:39.329Z,23.70
2018-11-23T12:34:09.783Z,26.07
2018-11-23T12:36:40.373Z,24.63
2018-11-23T12:39:10.848Z,26.47
2018-11-23T12:41:41.165Z,27.90
2018-11-23T12:44:12.479Z,23.87
2018-11-23T12:46:42.771Z,23.40
2018-11-23T12:49:13.129Z,27.40
2018-11-23T12:51:43.180Z,26.47
2018-11-23T12:54:14.060Z,26.37
2018-11-23T12:56:44.732Z,26.77
2018-11-23T12:59:15.255Z,26.53
2018-11-23T13:01:45.515Z,29.37
2018-11-23T13:04:15.905Z,23.87
2018-11-23T13:06:46.055Z,25.77
2018-11-23T13:09:16.435Z,26.97
2018-11-23T13:11:46.935Z,27.97
2018-11-23T13:14:17.081Z,28.63
2018-11-23T13:16:47.161Z,29.20
2018-11-23T13:20:46.947Z,35.90
2018-11-23T13:23:17.301Z,31.83
2018-11-23T13:25:48.181Z,33.30
2018-11-23T13:28:19.432Z,31.10
2018-11-23T13:30:50.518Z,29.17
2018-11-23T13:33:20.904Z,28.27
2018-11-23T13:35:52.283Z,24.70
2018-11-23T13:38:22.634Z,27.20
2018-11-23T13:40:52.909Z,22.03
2018-11-23T13:43:23.962Z,23.80
2018-11-23T13:45:55.243Z,22.77
2018-11-23T13:48:25.546Z,22.63
2018-11-23T13:50:56.206Z,22.03
2018-11-23T13:53:26.656Z,21.77
2018-11-23T13:55:56.910Z,21.23
2018-11-23T13:58:28.263Z,21.23
2018-11-23T14:00:59.190Z,21.80
2018-11-23T14:03:30.263Z,24.13
2018-11-23T14:06:01.013Z,23.80
2018-11-23T14:08:31.456Z,23.17
2018-11-23T14:11:02.484Z,20.87
2018-11-23T14:13:33.013Z,20.63
2018-11-23T14:16:03.030Z,24.47
2018-11-23T14:18:33.298Z,22.93
2018-11-23T14:21:03.399Z,21.33
2018-11-23T14:23:33.464Z,20.07
2018-11-23T14:26:03.788Z,20.70
2018-11-23T14:28:33.974Z,18.47
2018-11-23T14:31:04.278Z,23.27
2018-11-23T14:33:34.392Z,22.63
2018-11-23T14:36:04.797Z,20.53
2018-11-23T14:38:35.281Z,19.33
2018-11-23T14:41:06.662Z,21.37
2018-11-23T14:43:36.950Z,22.53
2018-11-23T14:46:08.080Z,20.67
2018-11-23T14:48:38.531Z,20.13
2018-11-23T14:51:10.699Z,22.00
2018-11-23T14:53:40.902Z,22.63
2018-11-23T14:56:11.386Z,24.87
2018-11-23T14:58:41.784Z,22.43
2018-11-23T15:01:12.795Z,25.80
2018-11-23T15:03:46.449Z,23.43
2018-11-23T15:06:17.113Z,24.30
2018-11-23T15:08:47.316Z,22.23
2018-11-23T15:11:17.974Z,26.77
2018-11-23T15:13:48.680Z,22.70
2018-11-23T15:16:19.078Z,23.17
2018-11-23T15:18:49.551Z,22.47
2018-11-23T15:21:21.049Z,24.47
2018-11-23T15:23:52.075Z,25.30
2018-11-23T15:26:22.408Z,22.63
2018-11-23T15:28:54.086Z,25.43
2018-11-23T15:31:26.883Z,27.53
2018-11-23T15:33:58.480Z,24.23
2018-11-23T15:36:29.935Z,28.77
2018-11-23T15:39:00.213Z,25.77
2018-11-23T15:41:30.805Z,26.30
2018-11-23T15:44:00.806Z,27.83
2018-11-23T15:46:32.204Z,31.50
2018-11-23T15:49:03.379Z,27.30
2018-11-23T15:51:34.502Z,28.63
2018-11-23T15:54:05.455Z,28.80
2018-11-23T15:56:35.778Z,25.93
2018-11-23T15:59:05.980Z,30.23
2018-11-23T16:01:36.646Z,29.83
2018-11-23T16:04:07.262Z,27.87
2018-11-23T16:06:37.889Z,33.93
2018-11-23T16:09:12.361Z,28.50
2018-11-23T16:11:42.657Z,31.57
2018-11-23T16:14:12.844Z,28.53
2018-11-23T16:16:43.278Z,27.70
2018-11-23T16:19:13.555Z,32.70
2018-11-23T16:21:44.212Z,35.60
2018-11-23T16:24:15.170Z,31.50
2018-11-23T16:26:46.884Z,32.60
2018-11-23T16:29:17.574Z,28.07
2018-11-23T16:31:48.014Z,32.20
2018-11-23T16:34:18.803Z,36.27
2018-11-23T16:36:50.856Z,27.93
2018-11-23T16:39:21.310Z,29.90
2018-11-23T16:41:51.831Z,26.93
2018-11-23T16:44:22.111Z,26.07
2018-11-23T16:46:52.911Z,23.80
2018-11-23T16:49:25.931Z,27.83
2018-11-23T16:51:56.794Z,26.50
2018-11-23T16:54:28.200Z,29.17
2018-11-23T16:56:59.429Z,31.60
2018-11-23T16:59:30.060Z,32.47
2018-11-23T17:02:06.223Z,32.43
2018-11-23T17:04:37.669Z,35.20
2018-11-23T17:07:12.680Z,32.53
2018-11-23T17:09:38.297Z,30.17
2018-11-23T17:12:08.222Z,47.93
2018-11-23T17:14:38.231Z,38.70
2018-11-23T17:17:08.877Z,41.53
2018-11-23T17:19:39.231Z,65.50
2018-11-23T17:22:09.405Z,96.83
2018-11-23T17:24:39.440Z,62.57
2018-11-23T17:27:10.015Z,53.53
2018-11-23T17:29:41.905Z,52.37
2018-11-23T17:32:12.584Z,57.63
2018-11-23T17:34:43.298Z,42.40
2018-11-23T17:37:14.092Z,41.30
2018-11-23T17:39:44.264Z,36.27
2018-11-23T17:42:14.375Z,36.57
2018-11-23T17:44:44.431Z,30.73
2018-11-23T17:47:14.300Z,31.97
2018-11-23T17:49:44.371Z,65.67
2018-11-23T17:52:15.105Z,42.43
2018-11-23T17:54:45.072Z,36.63
2018-11-23T17:57:14.977Z,41.30
2018-11-23T17:59:49.208Z,38.27
2018-11-23T18:02:21.317Z,38.50
2018-11-23T18:04:51.712Z,37.50
2018-11-23T18:07:21.875Z,38.47
2018-11-23T18:09:52.006Z,35.37
2018-11-23T18:12:22.934Z,33.87
2018-11-23T18:14:53.028Z,33.40
2018-11-23T18:17:22.973Z,35.13
2018-11-23T18:19:53.750Z,29.50
2018-11-23T18:22:24.088Z,32.43
2018-11-23T18:24:54.255Z,32.37
2018-11-23T18:27:25.457Z,30.87
2018-11-23T18:29:56.689Z,31.23
2018-11-23T18:32:26.858Z,32.17
2018-11-23T18:34:57.103Z,33.20
2018-11-23T18:37:28.444Z,31.73
2018-11-23T18:39:58.839Z,29.70
2018-11-23T18:42:29.239Z,29.10
2018-11-23T18:44:59.446Z,31.43
2018-11-23T18:47:29.528Z,31.27
2018-11-23T18:50:00.476Z,32.10
2018-11-23T18:52:32.214Z,30.63
2018-11-23T18:55:02.342Z,32.33
2018-11-23T18:57:33.007Z,30.70
2018-11-23T19:00:03.728Z,30.87
2018-11-23T19:02:34.012Z,30.00
2018-11-23T19:05:04.242Z,28.53
2018-11-23T19:07:36.847Z,27.97
2018-11-23T19:10:08.979Z,30.67
2018-11-23T19:12:39.213Z,34.43
2018-11-23T19:15:11.637Z,29.80
2018-11-23T19:17:42.085Z,30.77
2018-11-23T19:20:14.599Z,29.43
2018-11-23T19:22:51.667Z,28.17
2018-11-23T19:25:21.766Z,29.03
2018-11-23T19:27:52.232Z,27.20
2018-11-23T19:30:28.608Z,28.30
2018-11-23T19:32:54.212Z,28.97
2018-11-23T19:35:24.409Z,31.83
2018-11-23T19:37:54.543Z,29.77
2018-11-23T19:40:26.629Z,32.20
2018-11-23T19:42:57.211Z,34.83
2018-11-23T19:45:27.524Z,28.17
2018-11-23T19:47:58.011Z,128.40
2018-11-23T19:50:28.329Z,32.17
2018-11-23T19:52:59.409Z,30.00
2018-11-23T19:55:30.027Z,31.30
2018-11-23T19:58:02.267Z,33.30
2018-11-23T20:00:32.640Z,35.53
2018-11-23T20:03:03.727Z,33.00
2018-11-23T20:05:34.295Z,36.23
2018-11-23T20:08:05.157Z,33.83
2018-11-23T20:10:35.395Z,31.50
2018-11-23T20:13:06.372Z,31.70
2018-11-23T20:15:36.930Z,32.90
2018-11-23T20:18:07.465Z,30.50
2018-11-23T20:20:37.797Z,36.03
2018-11-23T20:23:08.885Z,34.70
2018-11-23T20:25:39.370Z,32.03
2018-11-23T20:28:09.640Z,30.30
2018-11-23T20:30:42.496Z,35.00
2018-11-23T20:33:10.398Z,33.40
2018-11-23T20:35:40.540Z,35.20
2018-11-23T20:38:10.680Z,31.33
2018-11-23T20:40:42.070Z,38.70
2018-11-23T20:43:12.939Z,35.03
2018-11-23T20:45:43.378Z,34.87
2018-11-23T20:48:14.045Z,35.90
2018-11-23T20:50:45.024Z,35.57
2018-11-23T20:53:15.643Z,37.73
2018-11-23T20:55:46.041Z,36.97
2018-11-23T20:58:17.407Z,34.73
2018-11-23T21:00:48.314Z,37.77
2018-11-23T21:03:19.256Z,41.17
2018-11-23T21:05:49.928Z,35.03
2018-11-23T21:08:20.475Z,34.70
2018-11-23T21:10:51.673Z,35.20
2018-11-23T21:13:22.159Z,34.53
2018-11-23T21:15:52.617Z,34.73
2018-11-23T21:18:24.148Z,37.20
2018-11-23T21:20:55.090Z,39.33
2018-11-23T21:23:25.393Z,39.80
2018-11-23T21:25:57.687Z,36.57
2018-11-23T21:28:27.957Z,38.77
2018-11-23T21:30:59.044Z,38.40
2018-11-23T21:33:30.425Z,41.80
2018-11-23T21:36:01.027Z,40.77
2018-11-23T21:38:31.977Z,38.67
2018-11-23T21:41:02.501Z,35.97
2018-11-23T21:43:32.690Z,42.23
2018-11-23T21:46:02.923Z,40.53
2018-11-23T21:48:33.361Z,38.67
2018-11-23T21:51:03.823Z,36.80
2018-11-23T21:53:34.257Z,42.20
2018-11-23T21:56:09.370Z,40.87
2018-11-23T21:58:34.680Z,41.00
2018-11-23T22:01:06.420Z,40.23
2018-11-23T22:03:37.476Z,42.53
2018-11-23T22:06:08.032Z,42.50
2018-11-23T22:08:38.401Z,43.57
2018-11-23T22:11:09.144Z,47.47
2018-11-23T22:13:40.080Z,44.43
2018-11-23T22:16:10.442Z,43.20
2018-11-23T22:18:40.950Z,39.63
2018-11-23T22:21:11.335Z,42.97
2018-11-23T22:23:41.816Z,44.57
2018-11-23T22:26:12.530Z,41.73
2018-11-23T22:28:43.176Z,43.63
2018-11-23T22:31:14.158Z,41.63
2018-11-23T22:33:45.144Z,38.50
2018-11-23T22:36:15.525Z,42.07
2018-11-23T22:38:46.242Z,41.20
2018-11-23T22:41:16.691Z,36.67
2018-11-23T22:43:46.742Z,38.00
2018-11-23T22:46:17.271Z,41.67
2018-11-23T22:48:47.912Z,38.30
2018-11-23T22:51:18.164Z,41.40
2018-11-23T22:53:48.242Z,49.23
2018-11-23T22:56:18.247Z,41.40
2018-11-23T22:58:55.290Z,41.17
2018-11-23T23:01:19.727Z,38.53
2018-11-23T23:03:49.708Z,41.00
2018-11-23T23:06:19.717Z,39.63
2018-11-23T23:08:49.930Z,47.90
2018-11-23T23:11:20.231Z,48.30
2018-11-23T23:13:50.861Z,41.70
2018-11-23T23:16:21.244Z,41.03
2018-11-23T23:18:51.323Z,41.93
2018-11-23T23:21:22.857Z,37.07
2018-11-23T23:23:52.855Z,41.83
2018-11-23T23:26:23.383Z,39.00
2018-11-23T23:28:53.685Z,38.03
2018-11-23T23:31:23.975Z,39.53
2018-11-23T23:33:54.289Z,42.17
2018-11-23T23:36:25.427Z,35.83
2018-11-23T23:38:55.945Z,38.67
2018-11-23T23:41:26.272Z,38.03
2018-11-23T23:43:56.484Z,38.80
2018-11-23T23:46:26.417Z,38.27
2018-11-23T23:48:57.430Z,38.60
2018-11-23T23:51:27.952Z,38.87
2018-11-23T23:53:58.268Z,37.37
2018-11-23T23:56:28.395Z,37.13
2018-11-23T23:58:59.415Z,38.10
